createdAt,value
2019-05-11T00:02:32.798Z,8.47
2019-05-11T00:05:05.931Z,9.40
2019-05-11T00:07:39.669Z,8.00
2019-05-11T00:10:14.392Z,7.87
2019-05-11T00:12:48.725Z,7.10
2019-05-11T00:15:22.764Z,7.93
2019-05-11T00:17:56.470Z,7.10
2019-05-11T00:20:29.963Z,7.50
2019-05-11T00:23:03.537Z,5.37
2019-05-11T00:25:37.163Z,6.83
2019-05-11T00:28:10.813Z,6.73
2019-05-11T00:30:53.873Z,6.70
2019-05-11T00:33:28.466Z,6.80
2019-05-11T00:36:06.602Z,5.47
2019-05-11T00:38:42.058Z,6.10
2019-05-11T00:41:15.987Z,5.63
2019-05-11T00:44:09.973Z,5.10
2019-05-11T00:50:41.340Z,5.93
2019-05-11T00:53:19.017Z,5.53
2019-05-11T00:55:53.722Z,6.17
2019-05-11T00:58:27.103Z,5.47
2019-05-11T01:01:01.507Z,6.07
2019-05-11T01:03:36.294Z,10.43
2019-05-11T01:06:10.165Z,14.30
2019-05-11T01:08:44.145Z,7.53
2019-05-11T01:11:17.805Z,8.27
2019-05-11T01:13:51.356Z,10.07
2019-05-11T01:16:25.071Z,6.60
2019-05-11T01:18:59.644Z,8.60
2019-05-11T01:21:38.559Z,6.53
2019-05-11T01:24:11.732Z,6.40
2019-05-11T01:26:44.886Z,5.60
2019-05-11T01:29:19.344Z,9.33
2019-05-11T01:31:54.322Z,6.73
2019-05-11T01:34:28.945Z,9.67
2019-05-11T01:37:03.692Z,6.30
2019-05-11T01:39:37.859Z,6.47
2019-05-11T01:42:12.083Z,5.63
2019-05-11T01:44:44.964Z,4.73
2019-05-11T01:47:18.250Z,5.50
2019-05-11T01:49:51.431Z,4.83
2019-05-11T01:52:25.909Z,4.47
2019-05-11T01:54:59.661Z,5.23
2019-05-11T01:57:32.736Z,5.67
2019-05-11T02:00:06.895Z,5.40
2019-05-11T02:02:46.278Z,8.17
2019-05-11T02:05:41.409Z,5.07
2019-05-11T02:08:16.864Z,5.37
2019-05-11T02:10:50.421Z,7.27
2019-05-11T02:13:26.118Z,5.17
2019-05-11T02:15:59.371Z,6.70
2019-05-11T02:18:34.199Z,5.30
2019-05-11T02:21:08.082Z,7.40
2019-05-11T02:23:42.201Z,6.20
2019-05-11T02:26:15.687Z,6.00
2019-05-11T02:28:49.250Z,6.90
2019-05-11T02:31:25.459Z,5.57
2019-05-11T02:34:01.937Z,5.00
2019-05-11T02:36:47.584Z,5.80
2019-05-11T02:39:21.999Z,4.80
2019-05-11T02:41:55.745Z,5.17
2019-05-11T02:44:29.932Z,5.40
2019-05-11T02:47:04.504Z,4.23
2019-05-11T02:49:45.742Z,4.13
2019-05-11T02:52:20.394Z,6.33
2019-05-11T02:54:57.841Z,4.40
2019-05-11T02:57:31.367Z,4.70
2019-05-11T03:00:05.493Z,5.13
2019-05-11T03:02:38.798Z,4.37
2019-05-11T03:05:12.111Z,3.70
2019-05-11T03:07:45.602Z,5.30
2019-05-11T03:10:19.373Z,5.20
2019-05-11T03:12:53.194Z,5.23
2019-05-11T03:15:26.779Z,3.73
2019-05-11T03:18:02.023Z,6.47
2019-05-11T03:20:36.145Z,4.37
2019-05-11T03:23:09.859Z,4.70
2019-05-11T03:25:43.272Z,4.10
2019-05-11T03:28:16.478Z,3.87
2019-05-11T03:30:52.388Z,3.80
2019-05-11T03:33:27.925Z,6.10
2019-05-11T03:36:00.917Z,5.37
2019-05-11T03:38:37.169Z,4.60
2019-05-11T03:41:11.614Z,6.20
2019-05-11T03:43:50.028Z,6.50
2019-05-11T03:46:42.847Z,4.50
2019-05-11T03:49:30.555Z,5.47
2019-05-11T03:52:04.459Z,5.10
2019-05-11T03:55:01.735Z,6.07
2019-05-11T03:57:35.625Z,7.03
2019-05-11T04:00:10.331Z,6.77
2019-05-11T04:02:44.142Z,8.87
2019-05-11T04:05:18.524Z,5.77
2019-05-11T04:07:51.435Z,7.23
2019-05-11T04:10:25.334Z,5.70
2019-05-11T04:13:02.239Z,7.97
2019-05-11T04:16:32.077Z,4.30
2019-05-11T04:19:05.615Z,5.87
2019-05-11T04:21:38.972Z,5.53
2019-05-11T04:24:12.318Z,5.77
2019-05-11T04:26:45.949Z,12.20
2019-05-11T04:29:20.158Z,7.40
2019-05-11T04:31:54.443Z,9.13
2019-05-11T04:34:28.265Z,7.60
2019-05-11T04:37:02.460Z,5.63
2019-05-11T04:39:34.599Z,5.03
2019-05-11T04:42:08.230Z,5.20
2019-05-11T04:44:52.983Z,6.13
2019-05-11T04:47:26.989Z,4.70
2019-05-11T04:50:00.037Z,4.80
2019-05-11T04:53:20.855Z,4.60
2019-05-11T04:55:55.926Z,4.80
2019-05-11T04:58:30.992Z,5.83
2019-05-11T05:01:04.931Z,7.13
2019-05-11T05:07:22.846Z,5.87
2019-05-11T05:10:20.025Z,5.70
2019-05-11T05:13:09.324Z,10.03
2019-05-11T05:15:30.163Z,7.80
2019-05-11T05:18:06.582Z,7.37
2019-05-11T05:20:45.652Z,5.27
2019-05-11T05:23:19.382Z,5.10
2019-05-11T05:25:54.317Z,5.53
2019-05-11T05:28:28.115Z,3.57
2019-05-11T05:31:01.769Z,5.70
2019-05-11T05:33:49.734Z,4.53
2019-05-11T05:36:41.410Z,6.10
2019-05-11T05:39:17.357Z,6.43
2019-05-11T05:48:54.015Z,5.50
2019-05-11T05:51:27.695Z,6.73
2019-05-11T05:57:49.975Z,4.30
2019-05-11T06:00:24.221Z,6.43
2019-05-11T06:02:58.029Z,5.23
2019-05-11T06:05:31.395Z,6.47
2019-05-11T06:08:09.970Z,5.87
2019-05-11T06:10:43.758Z,8.33
2019-05-11T06:17:06.411Z,5.70
2019-05-11T06:19:41.512Z,4.57
2019-05-11T06:22:28.515Z,4.17
2019-05-11T06:25:04.386Z,4.20
2019-05-11T06:27:38.369Z,6.03
2019-05-11T06:30:12.550Z,4.47
2019-05-11T06:32:47.295Z,5.37
2019-05-11T06:35:22.418Z,4.70
2019-05-11T06:38:08.121Z,2.60
2019-05-11T06:40:42.225Z,33.80
2019-05-11T06:43:15.873Z,6.53
2019-05-11T06:45:49.590Z,4.90
2019-05-11T06:48:32.693Z,3.47
2019-05-11T06:51:06.844Z,3.17
2019-05-11T06:53:56.742Z,4.17
2019-05-11T06:56:30.552Z,3.57
2019-05-11T06:59:05.126Z,3.77
2019-05-11T07:02:00.500Z,3.97
2019-05-11T07:04:33.789Z,3.90
2019-05-11T07:07:10.594Z,3.80
2019-05-11T07:09:44.682Z,5.07
2019-05-11T07:12:18.311Z,5.13
2019-05-11T07:15:12.344Z,4.77
2019-05-11T07:18:07.058Z,6.03
2019-05-11T07:24:38.061Z,4.43
2019-05-11T07:27:12.111Z,11.47
2019-05-11T07:29:46.741Z,4.13
2019-05-11T07:36:28.082Z,4.17
2019-05-11T07:43:01.465Z,3.97
2019-05-11T07:45:50.453Z,6.00
2019-05-11T07:48:24.413Z,4.30
2019-05-11T07:51:18.454Z,4.83
2019-05-11T07:53:54.820Z,5.43
2019-05-11T07:56:47.903Z,3.90
2019-05-11T07:59:21.619Z,6.40
2019-05-11T08:02:01.972Z,3.27
2019-05-11T08:04:37.718Z,3.70
2019-05-11T08:07:10.615Z,3.57
2019-05-11T08:09:44.786Z,3.07
2019-05-11T08:12:19.230Z,3.70
2019-05-11T08:17:34.063Z,2.83
2019-05-11T08:23:39.943Z,3.07
2019-05-11T08:26:24.438Z,3.40
2019-05-11T08:29:15.585Z,4.53
2019-05-11T08:31:58.165Z,4.77
2019-05-11T08:34:31.035Z,3.37
2019-05-11T08:37:08.680Z,3.03
2019-05-11T08:39:41.519Z,3.43
2019-05-11T08:42:15.149Z,3.53
2019-05-11T08:44:49.130Z,3.93
2019-05-11T08:47:22.819Z,2.50
2019-05-11T08:49:58.762Z,3.00
2019-05-11T08:52:32.434Z,2.27
2019-05-11T08:55:09.100Z,2.90
2019-05-11T08:57:55.398Z,3.40
2019-05-11T09:00:47.665Z,2.97
2019-05-11T09:04:19.478Z,3.43
2019-05-11T09:06:53.472Z,3.00
2019-05-11T09:09:39.682Z,3.57
2019-05-11T09:12:19.886Z,2.80
2019-05-11T09:15:00.652Z,2.80
2019-05-11T09:17:33.761Z,4.13
2019-05-11T09:20:09.227Z,3.00
2019-05-11T09:22:43.255Z,3.67
2019-05-11T09:25:18.331Z,3.73
2019-05-11T09:28:00.164Z,3.00
2019-05-11T09:31:08.579Z,3.80
2019-05-11T09:33:42.637Z,3.47
2019-05-11T09:36:18.294Z,2.53
2019-05-11T09:38:59.304Z,3.47
2019-05-11T09:41:58.625Z,3.20
2019-05-11T09:44:32.995Z,2.63
2019-05-11T09:47:18.957Z,3.43
2019-05-11T09:49:58.230Z,3.03
2019-05-11T09:52:39.060Z,3.10
2019-05-11T09:55:12.561Z,2.50
2019-05-11T09:57:44.984Z,2.87
2019-05-11T10:00:19.595Z,3.20
2019-05-11T10:02:54.285Z,4.37
2019-05-11T10:05:28.825Z,2.97
2019-05-11T10:08:18.409Z,3.40
2019-05-11T10:10:52.425Z,2.50
2019-05-11T10:13:30.920Z,2.97
2019-05-11T10:16:24.032Z,4.37
2019-05-11T10:19:10.236Z,2.50
2019-05-11T10:22:23.481Z,2.77
2019-05-11T10:25:35.550Z,3.07
2019-05-11T10:28:15.121Z,2.90
2019-05-11T10:31:00.102Z,2.90
2019-05-11T10:34:08.654Z,4.77
2019-05-11T10:37:17.531Z,6.50
2019-05-11T10:39:51.633Z,8.67
2019-05-11T10:45:58.795Z,4.23
2019-05-11T10:48:32.487Z,4.30
2019-05-11T10:51:08.348Z,3.67
2019-05-11T10:53:52.176Z,3.60
2019-05-11T10:56:33.426Z,7.67
2019-05-11T10:59:58.384Z,4.87
2019-05-11T11:02:35.006Z,4.30
2019-05-11T11:05:22.117Z,3.40
2019-05-11T11:08:00.631Z,3.87
2019-05-11T11:10:33.851Z,9.37
2019-05-11T11:13:08.148Z,3.30
2019-05-11T11:15:40.043Z,3.63
2019-05-11T11:18:18.804Z,4.10
2019-05-11T11:20:53.032Z,4.90
2019-05-11T11:23:44.123Z,3.20
2019-05-11T11:26:28.383Z,4.13
2019-05-11T11:29:02.857Z,5.87
2019-05-11T11:31:51.748Z,5.10
2019-05-11T11:34:25.295Z,5.50
2019-05-11T11:36:59.085Z,4.03
2019-05-11T11:39:32.353Z,3.33
2019-05-11T11:46:23.430Z,3.90
2019-05-11T11:48:58.092Z,4.00
2019-05-11T11:52:14.292Z,5.80
2019-05-11T11:54:54.898Z,3.77
2019-05-11T11:57:28.446Z,5.00
2019-05-11T12:03:27.733Z,4.00
2019-05-11T12:06:03.515Z,4.23
2019-05-11T12:08:53.278Z,4.80
2019-05-11T12:11:28.013Z,4.00
2019-05-11T12:14:02.126Z,4.60
2019-05-11T12:16:34.547Z,3.83
2019-05-11T12:19:13.915Z,3.57
2019-05-11T12:22:00.390Z,4.00
2019-05-11T12:24:34.405Z,3.90
2019-05-11T12:27:07.721Z,3.73
2019-05-11T12:29:42.317Z,4.60
2019-05-11T12:32:28.021Z,3.63
2019-05-11T12:35:28.474Z,4.00
2019-05-11T12:38:18.167Z,4.47
2019-05-11T12:40:53.773Z,4.43
2019-05-11T12:43:27.828Z,4.73
2019-05-11T12:46:00.922Z,4.63
2019-05-11T12:48:37.884Z,3.67
2019-05-11T12:51:10.426Z,3.80
2019-05-11T12:54:03.731Z,4.67
2019-05-11T12:59:51.984Z,3.80
2019-05-11T13:02:32.898Z,4.23
2019-05-11T13:05:08.651Z,4.00
2019-05-11T13:07:42.818Z,3.63
2019-05-11T13:10:22.558Z,4.10
2019-05-11T13:13:09.045Z,3.57
2019-05-11T13:15:47.904Z,3.90
2019-05-11T13:18:32.290Z,4.70
2019-05-11T13:21:07.727Z,3.70
2019-05-11T13:24:24.112Z,3.53
2019-05-11T13:30:28.842Z,3.47
2019-05-11T13:33:02.558Z,4.50
2019-05-11T13:35:39.323Z,3.63
2019-05-11T13:38:13.575Z,4.43
2019-05-11T13:40:48.752Z,3.40
2019-05-11T13:44:00.033Z,3.20
2019-05-11T13:47:01.146Z,4.20
2019-05-11T13:49:35.102Z,3.10
2019-05-11T13:52:09.605Z,3.30
2019-05-11T13:58:30.436Z,2.83
2019-05-11T14:01:18.340Z,2.70
2019-05-11T14:03:52.467Z,3.03
2019-05-11T14:10:34.973Z,3.93
2019-05-11T14:13:20.316Z,3.30
2019-05-11T14:16:05.082Z,2.57
2019-05-11T14:18:39.299Z,2.27
2019-05-11T14:21:20.378Z,3.50
2019-05-11T14:23:52.425Z,2.43
2019-05-11T14:27:03.522Z,2.57
2019-05-11T14:29:38.492Z,3.03
2019-05-11T14:32:34.520Z,3.67
2019-05-11T14:35:29.492Z,3.07
2019-05-11T14:38:11.030Z,2.57
2019-05-11T14:41:28.685Z,2.30
2019-05-11T14:44:44.390Z,2.53
2019-05-11T14:47:18.153Z,2.27
2019-05-11T14:49:52.265Z,3.90
2019-05-11T14:52:28.057Z,3.30
2019-05-11T14:55:01.989Z,3.60
2019-05-11T14:57:48.888Z,3.23
2019-05-11T15:04:37.796Z,3.70
2019-05-11T15:07:38.563Z,2.87
2019-05-11T15:10:21.462Z,3.13
2019-05-11T15:12:58.906Z,4.37
2019-05-11T15:15:39.455Z,6.37
2019-05-11T15:18:12.977Z,3.40
2019-05-11T15:21:23.593Z,2.40
2019-05-11T15:24:08.753Z,3.07
2019-05-11T15:26:43.148Z,4.60
2019-05-11T15:29:18.469Z,3.23
2019-05-11T15:31:53.722Z,2.40
2019-05-11T15:34:29.053Z,4.63
2019-05-11T15:37:08.440Z,4.67
2019-05-11T15:39:41.258Z,2.77
2019-05-11T15:42:19.895Z,3.30
2019-05-11T15:44:53.645Z,2.67
2019-05-11T15:47:40.752Z,2.80
2019-05-11T15:50:29.085Z,3.20
2019-05-11T15:53:08.777Z,2.87
2019-05-11T15:55:47.292Z,4.40
2019-05-11T15:58:23.714Z,3.83
2019-05-11T16:00:58.787Z,5.40
2019-05-11T16:03:32.442Z,4.97
2019-05-11T16:06:08.836Z,4.73
2019-05-11T16:08:45.419Z,3.67
2019-05-11T16:11:18.464Z,3.60
2019-05-11T16:13:58.294Z,5.00
2019-05-11T16:16:31.634Z,5.13
2019-05-11T16:19:11.738Z,6.23
2019-05-11T16:21:59.018Z,3.77
2019-05-11T16:24:32.905Z,3.40
2019-05-11T16:27:08.753Z,4.50
2019-05-11T16:29:43.071Z,4.70
2019-05-11T16:32:17.796Z,3.23
2019-05-11T16:34:54.410Z,3.70
2019-05-11T16:37:28.925Z,3.63
2019-05-11T16:40:03.747Z,3.83
2019-05-11T16:42:45.067Z,4.37
2019-05-11T16:45:23.951Z,2.57
2019-05-11T16:47:58.797Z,3.30
2019-05-11T16:50:32.571Z,3.60
2019-05-11T16:53:07.902Z,5.37
2019-05-11T16:55:43.383Z,5.03
2019-05-11T16:58:20.239Z,6.00
2019-05-11T17:00:54.333Z,4.50
2019-05-11T17:03:28.239Z,4.70
2019-05-11T17:06:08.503Z,4.50
2019-05-11T17:08:45.182Z,4.00
2019-05-11T17:11:25.524Z,4.50
2019-05-11T17:14:30.322Z,6.03
2019-05-11T17:17:18.873Z,4.50
2019-05-11T17:19:54.056Z,4.17
2019-05-11T17:26:20.506Z,4.33
2019-05-11T17:28:58.752Z,5.00
2019-05-11T17:31:48.322Z,4.70
2019-05-11T17:34:21.186Z,5.57
2019-05-11T17:36:59.614Z,4.83
2019-05-11T17:39:50.808Z,5.37
2019-05-11T17:42:31.194Z,5.80
2019-05-11T17:45:08.116Z,7.83
2019-05-11T17:47:42.681Z,5.73
2019-05-11T17:50:44.983Z,5.67
2019-05-11T17:53:23.143Z,6.27
2019-05-11T17:55:57.850Z,6.33
2019-05-11T17:58:37.888Z,7.13
2019-05-11T18:01:12.861Z,7.50
2019-05-11T18:03:50.254Z,6.77
2019-05-11T18:06:25.150Z,6.77
2019-05-11T18:09:01.752Z,6.47
2019-05-11T18:11:42.625Z,8.33
2019-05-11T18:14:16.003Z,9.93
2019-05-11T18:24:45.686Z,6.77
2019-05-11T18:27:19.097Z,7.07
2019-05-11T18:30:45.219Z,7.37
2019-05-11T18:33:19.051Z,7.10
2019-05-11T18:35:52.966Z,7.80
2019-05-11T18:38:30.174Z,7.13
2019-05-11T18:41:02.679Z,7.53
2019-05-11T18:43:34.953Z,6.70
2019-05-11T18:46:08.791Z,7.47
2019-05-11T18:48:48.653Z,8.67
2019-05-11T18:51:22.137Z,9.00
2019-05-11T18:53:58.624Z,6.87
2019-05-11T18:56:35.208Z,7.43
2019-05-11T18:59:14.667Z,9.33
2019-05-11T19:01:50.673Z,7.87
2019-05-11T19:04:23.990Z,5.40
2019-05-11T19:07:06.093Z,4.90
2019-05-11T19:09:34.017Z,8.20
2019-05-11T19:12:08.637Z,4.57
2019-05-11T19:14:54.366Z,6.33
2019-05-11T19:17:29.114Z,26.23
2019-05-11T19:20:04.030Z,21.60
2019-05-11T19:22:42.108Z,77.07
2019-05-11T19:25:19.307Z,101.60
2019-05-11T19:28:23.866Z,87.57
2019-05-11T19:31:01.792Z,37.73
2019-05-11T19:33:38.043Z,28.03
2019-05-11T19:36:14.964Z,23.30
2019-05-11T19:39:02.279Z,24.00
2019-05-11T19:41:41.212Z,16.20
2019-05-11T19:44:14.975Z,21.97
2019-05-11T19:46:48.289Z,15.87
2019-05-11T19:49:29.110Z,15.33
2019-05-11T19:52:38.163Z,34.40
2019-05-11T19:55:14.709Z,21.03
2019-05-11T19:57:52.751Z,17.83
2019-05-11T20:04:16.106Z,736.57
2019-05-11T20:07:08.592Z,545.10
2019-05-11T20:09:42.524Z,243.57
2019-05-11T20:12:24.272Z,64.30
2019-05-11T20:14:58.675Z,57.87
2019-05-11T20:17:33.134Z,46.83
2019-05-11T20:20:08.903Z,28.60
2019-05-11T20:22:58.277Z,19.73
2019-05-11T20:25:38.131Z,16.70
2019-05-11T20:28:20.020Z,24.03
2019-05-11T20:30:58.726Z,22.80
2019-05-11T20:33:38.328Z,23.00
2019-05-11T20:36:11.700Z,28.57
2019-05-11T20:38:47.615Z,37.40
2019-05-11T20:41:22.266Z,37.60
2019-05-11T20:43:57.681Z,32.27
2019-05-11T20:46:30.023Z,32.97
2019-05-11T20:49:05.989Z,103.50
2019-05-11T20:51:41.591Z,120.57
2019-05-11T20:54:22.350Z,70.70
2019-05-11T20:57:05.425Z,14.80
2019-05-11T20:59:43.230Z,16.43
2019-05-11T21:02:24.557Z,11.53
2019-05-11T21:05:00.090Z,10.73
2019-05-11T21:07:39.066Z,9.53
2019-05-11T21:10:18.945Z,8.80
2019-05-11T21:12:53.595Z,8.20
2019-05-11T21:15:28.091Z,10.87
2019-05-11T21:18:04.828Z,10.53
2019-05-11T21:20:39.091Z,8.43
2019-05-11T21:23:13.707Z,8.93
2019-05-11T21:25:47.740Z,10.27
2019-05-11T21:32:14.948Z,14.60
2019-05-11T21:34:50.558Z,9.43
2019-05-11T21:37:27.853Z,8.30
2019-05-11T21:40:10.556Z,7.10
2019-05-11T21:46:02.259Z,9.40
2019-05-11T21:48:42.932Z,7.40
2019-05-11T21:51:28.558Z,10.17
2019-05-11T21:54:06.848Z,6.87
2019-05-11T21:56:42.403Z,6.87
2019-05-11T21:59:18.230Z,8.90
2019-05-11T22:01:57.784Z,5.57
2019-05-11T22:04:31.253Z,7.63
2019-05-11T22:07:07.916Z,10.10
2019-05-11T22:09:41.485Z,8.83
2019-05-11T22:12:18.751Z,9.83
2019-05-11T22:15:00.003Z,12.37
2019-05-11T22:17:34.616Z,8.13
2019-05-11T22:20:11.244Z,6.80
2019-05-11T22:22:45.028Z,8.70
2019-05-11T22:25:18.770Z,9.97
2019-05-11T22:27:53.083Z,6.83
2019-05-11T22:30:28.095Z,6.13
2019-05-11T22:33:08.592Z,6.37
2019-05-11T22:35:43.212Z,7.67
2019-05-11T22:38:50.355Z,12.07
2019-05-11T22:41:26.825Z,8.13
2019-05-11T22:44:13.604Z,16.10
2019-05-11T22:46:49.502Z,8.07
2019-05-11T22:49:28.271Z,10.47
2019-05-11T22:52:04.695Z,9.97
2019-05-11T22:54:39.438Z,6.23
2019-05-11T22:57:13.944Z,5.50
2019-05-11T22:59:50.098Z,5.13
2019-05-11T23:02:24.210Z,4.53
2019-05-11T23:05:00.128Z,4.47
2019-05-11T23:07:34.672Z,5.10
2019-05-11T23:10:10.247Z,5.63
2019-05-11T23:12:44.594Z,18.73
2019-05-11T23:15:19.677Z,7.43
2019-05-11T23:17:53.479Z,11.37
2019-05-11T23:20:29.871Z,6.27
2019-05-11T23:23:02.269Z,8.23
2019-05-11T23:25:36.308Z,7.03
2019-05-11T23:28:09.805Z,7.20
2019-05-11T23:30:43.590Z,6.20
2019-05-11T23:33:20.206Z,8.27
2019-05-11T23:36:04.126Z,7.77
2019-05-11T23:38:38.850Z,10.47
2019-05-11T23:41:24.088Z,10.70
2019-05-11T23:43:49.566Z,7.93
2019-05-11T23:46:23.086Z,7.50
2019-05-11T23:48:58.108Z,8.83
2019-05-11T23:51:33.614Z,12.60
2019-05-11T23:54:08.250Z,8.90
2019-05-11T23:56:43.299Z,7.60
2019-05-11T23:59:18.924Z,7.70
